createdAt,value
2022-11-23T00:01:18.517Z,1.42
2022-11-23T00:03:46.837Z,1.35
2022-11-23T00:06:13.408Z,1.05
2022-11-23T00:08:40.454Z,0.93
2022-11-23T00:11:06.953Z,1.45
2022-11-23T00:13:35.378Z,1.20
2022-11-23T00:16:06.295Z,1.17
2022-11-23T00:18:32.618Z,1.30
2022-11-23T00:20:59.069Z,1.40
2022-11-23T00:23:25.429Z,1.25
2022-11-23T00:25:52.465Z,1.23
2022-11-23T00:28:18.838Z,1.20
2022-11-23T00:30:49.833Z,1.40
2022-11-23T00:33:17.255Z,1.17
2022-11-23T00:35:43.802Z,1.42
2022-11-23T00:38:10.354Z,1.23
2022-11-23T00:40:36.873Z,1.23
2022-11-23T00:43:03.730Z,1.20
2022-11-23T00:45:30.175Z,1.33
2022-11-23T00:47:56.617Z,1.30
2022-11-23T00:50:23.004Z,1.38
2022-11-23T00:52:49.354Z,1.20
2022-11-23T00:55:15.828Z,1.10
2022-11-23T00:57:42.126Z,0.90
2022-11-23T01:00:08.985Z,1.05
2022-11-23T01:02:36.137Z,1.00
2022-11-23T01:05:03.480Z,1.50
2022-11-23T01:07:32.619Z,1.40
2022-11-23T01:09:59.182Z,1.55
2022-11-23T01:12:25.673Z,1.27
2022-11-23T01:14:53.900Z,1.50
2022-11-23T01:17:20.289Z,1.30
2022-11-23T01:19:46.772Z,1.65
2022-11-23T01:22:13.276Z,1.27
2022-11-23T01:24:39.581Z,1.20
2022-11-23T01:27:05.901Z,1.30
2022-11-23T01:29:32.778Z,1.38
2022-11-23T01:34:43.753Z,1.45
2022-11-23T01:37:10.205Z,1.38
2022-11-23T01:39:36.621Z,1.25
2022-11-23T01:42:06.880Z,1.10
2022-11-23T01:44:35.100Z,1.40
2022-11-23T01:47:10.893Z,1.10
2022-11-23T01:49:44.860Z,1.60
2022-11-23T01:52:18.317Z,1.40
2022-11-23T01:54:50.553Z,0.98
2022-11-23T01:57:27.898Z,1.15
2022-11-23T01:59:56.241Z,1.42
2022-11-23T02:02:22.684Z,1.60
2022-11-23T02:04:52.168Z,1.38
2022-11-23T02:07:19.331Z,1.50
2022-11-23T02:09:47.148Z,1.27
2022-11-23T02:12:14.457Z,1.75
2022-11-23T02:14:42.021Z,1.45
2022-11-23T02:17:09.034Z,1.40
2022-11-23T02:20:06.105Z,1.83
2022-11-23T02:22:40.807Z,1.60
2022-11-23T02:25:30.924Z,1.48
2022-11-23T02:27:57.863Z,1.60
2022-11-23T02:30:24.302Z,1.35
2022-11-23T02:32:50.653Z,1.27
2022-11-23T02:35:17.090Z,1.30
2022-11-23T02:37:43.806Z,1.80
2022-11-23T02:40:23.436Z,1.48
2022-11-23T02:42:50.597Z,1.70
2022-11-23T02:45:28.810Z,1.45
2022-11-23T02:47:55.240Z,1.70
2022-11-23T02:50:21.765Z,1.73
2022-11-23T02:52:48.266Z,1.33
2022-11-23T02:55:14.752Z,1.60
2022-11-23T02:57:41.080Z,1.50
2022-11-23T03:00:08.120Z,1.70
2022-11-23T03:02:34.465Z,1.88
2022-11-23T03:05:00.790Z,1.60
2022-11-23T03:07:27.259Z,1.48
2022-11-23T03:09:53.625Z,1.60
2022-11-23T03:12:20.050Z,1.83
2022-11-23T03:14:46.758Z,1.45
2022-11-23T03:17:13.110Z,1.70
2022-11-23T03:19:39.441Z,1.75
2022-11-23T03:22:05.864Z,1.77
2022-11-23T03:24:32.256Z,1.80
2022-11-23T03:26:58.612Z,1.65
2022-11-23T03:29:26.415Z,2.00
2022-11-23T03:31:53.975Z,1.70
2022-11-23T03:34:20.374Z,1.75
2022-11-23T03:36:46.795Z,2.05
2022-11-23T03:39:13.159Z,1.80
2022-11-23T03:41:39.672Z,1.75
2022-11-23T03:44:05.983Z,1.70
2022-11-23T03:46:32.309Z,1.55
2022-11-23T03:48:58.712Z,1.75
2022-11-23T03:51:25.048Z,1.80
2022-11-23T03:53:51.357Z,2.20
2022-11-23T03:56:17.787Z,1.95
2022-11-23T03:58:44.139Z,1.92
2022-11-23T04:01:10.559Z,1.90
2022-11-23T04:03:37.028Z,1.77
2022-11-23T04:06:03.508Z,1.80
2022-11-23T04:08:29.882Z,1.77
2022-11-23T04:10:57.840Z,1.65
2022-11-23T04:13:24.662Z,1.75
2022-11-23T04:15:51.134Z,1.70
2022-11-23T04:18:17.473Z,1.48
2022-11-23T04:20:43.831Z,2.03
2022-11-23T04:23:13.280Z,1.73
2022-11-23T04:25:40.288Z,1.42
2022-11-23T04:28:06.604Z,1.52
2022-11-23T04:30:33.090Z,1.42
2022-11-23T04:32:59.399Z,1.98
2022-11-23T04:35:25.710Z,1.90
2022-11-23T04:37:52.038Z,1.58
2022-11-23T04:40:18.403Z,1.52
2022-11-23T04:42:45.491Z,1.48
2022-11-23T04:45:11.874Z,1.48
2022-11-23T04:47:38.334Z,1.70
2022-11-23T04:50:05.096Z,1.55
2022-11-23T04:52:31.473Z,1.70
2022-11-23T04:54:57.815Z,1.52
2022-11-23T04:57:24.162Z,1.45
2022-11-23T04:59:50.510Z,1.63
2022-11-23T05:02:16.925Z,1.83
2022-11-23T05:04:43.235Z,1.60
2022-11-23T05:07:09.593Z,1.50
2022-11-23T05:09:35.985Z,1.75
2022-11-23T05:12:02.326Z,1.60
2022-11-23T05:14:28.649Z,1.40
2022-11-23T05:16:55.153Z,1.63
2022-11-23T05:19:21.453Z,1.60
2022-11-23T05:21:47.835Z,1.83
2022-11-23T05:24:14.226Z,1.77
2022-11-23T05:26:40.550Z,1.58
2022-11-23T05:29:06.867Z,1.50
2022-11-23T05:31:33.699Z,1.48
2022-11-23T05:34:00.122Z,1.63
2022-11-23T05:36:26.468Z,1.55
2022-11-23T05:38:52.805Z,1.52
2022-11-23T05:41:19.163Z,1.73
2022-11-23T05:43:45.470Z,1.50
2022-11-23T05:46:11.833Z,1.63
2022-11-23T05:48:38.181Z,1.73
2022-11-23T05:51:05.651Z,1.70
2022-11-23T05:53:32.853Z,1.88
2022-11-23T05:56:01.282Z,2.13
2022-11-23T05:58:28.500Z,1.50
2022-11-23T06:00:59.419Z,2.15
2022-11-23T06:03:25.903Z,2.35
2022-11-23T06:05:52.287Z,1.88
2022-11-23T06:08:18.692Z,2.00
2022-11-23T06:10:44.995Z,1.90
2022-11-23T06:13:11.329Z,2.20
2022-11-23T06:15:37.639Z,2.35
2022-11-23T06:18:04.129Z,2.22
2022-11-23T06:20:30.558Z,2.15
2022-11-23T06:22:57.287Z,2.28
2022-11-23T06:25:24.810Z,1.85
2022-11-23T06:28:00.131Z,1.75
2022-11-23T06:30:28.637Z,1.77
2022-11-23T06:32:55.670Z,1.75
2022-11-23T06:35:22.166Z,1.98
2022-11-23T06:37:50.241Z,1.50
2022-11-23T06:40:16.996Z,1.70
2022-11-23T06:42:43.383Z,1.90
2022-11-23T06:45:10.371Z,1.60
2022-11-23T06:47:36.700Z,2.00
2022-11-23T06:50:03.337Z,1.52
2022-11-23T06:52:29.692Z,1.80
2022-11-23T06:54:56.072Z,1.60
2022-11-23T06:57:22.865Z,1.98
2022-11-23T06:59:49.289Z,1.95
2022-11-23T07:02:15.719Z,1.80
2022-11-23T07:04:42.129Z,2.28
2022-11-23T07:07:09.016Z,1.90
2022-11-23T07:09:35.890Z,2.05
2022-11-23T07:12:02.359Z,2.15
2022-11-23T07:14:28.698Z,2.03
2022-11-23T07:16:55.051Z,1.98
2022-11-23T07:19:21.427Z,1.95
2022-11-23T07:21:47.735Z,1.80
2022-11-23T07:24:14.080Z,2.10
2022-11-23T07:26:40.440Z,2.00
2022-11-23T07:29:06.761Z,1.73
2022-11-23T07:31:33.078Z,1.90
2022-11-23T07:33:59.469Z,2.03
2022-11-23T07:36:25.844Z,2.15
2022-11-23T07:38:52.160Z,1.75
2022-11-23T07:41:18.638Z,1.83
2022-11-23T07:43:44.952Z,1.55
2022-11-23T07:46:23.842Z,1.58
2022-11-23T07:48:50.402Z,1.67
2022-11-23T07:51:19.446Z,1.80
2022-11-23T07:53:46.713Z,1.60
2022-11-23T07:56:13.463Z,1.98
2022-11-23T07:58:39.837Z,1.40
2022-11-23T08:01:06.173Z,1.92
2022-11-23T08:03:32.567Z,1.55
2022-11-23T08:05:58.992Z,1.60
2022-11-23T08:08:25.359Z,1.70
2022-11-23T08:10:54.185Z,2.00
2022-11-23T08:13:21.888Z,1.88
2022-11-23T08:15:53.767Z,1.65
2022-11-23T08:18:21.424Z,1.67
2022-11-23T08:20:47.885Z,1.23
2022-11-23T08:23:14.230Z,1.83
2022-11-23T08:25:40.647Z,1.70
2022-11-23T08:28:06.980Z,1.95
2022-11-23T08:30:34.316Z,1.65
2022-11-23T08:33:08.719Z,1.80
2022-11-23T08:35:39.616Z,1.52
2022-11-23T08:38:07.809Z,1.48
2022-11-23T08:40:35.018Z,1.83
2022-11-23T08:43:01.567Z,1.45
2022-11-23T08:45:28.533Z,2.00
2022-11-23T08:48:00.784Z,1.60
2022-11-23T08:50:29.200Z,1.55
2022-11-23T08:52:57.073Z,1.98
2022-11-23T08:55:24.699Z,1.65
2022-11-23T08:57:54.171Z,1.50
2022-11-23T09:00:20.621Z,1.80
2022-11-23T09:02:46.971Z,2.13
2022-11-23T09:05:13.354Z,2.08
2022-11-23T09:07:40.004Z,1.60
2022-11-23T09:10:07.128Z,1.92
2022-11-23T09:12:33.704Z,2.65
2022-11-23T09:15:00.030Z,1.65
2022-11-23T09:17:26.363Z,1.98
2022-11-23T09:19:52.705Z,1.30
2022-11-23T09:22:19.032Z,2.15
2022-11-23T09:24:45.385Z,1.80
2022-11-23T09:27:11.790Z,1.52
2022-11-23T09:29:38.173Z,1.63
2022-11-23T09:32:04.719Z,1.60
2022-11-23T09:34:31.339Z,1.48
2022-11-23T09:36:58.221Z,1.67
2022-11-23T09:39:24.561Z,1.23
2022-11-23T09:42:13.494Z,1.33
2022-11-23T09:45:06.075Z,1.70
2022-11-23T09:48:05.986Z,1.60
2022-11-23T09:50:48.236Z,1.77
2022-11-23T09:53:27.975Z,1.65
2022-11-23T09:55:57.100Z,1.70
2022-11-23T09:58:29.485Z,1.80
2022-11-23T10:01:05.238Z,1.58
2022-11-23T10:03:36.940Z,1.55
2022-11-23T10:06:19.605Z,1.70
2022-11-23T10:09:07.253Z,1.40
2022-11-23T10:11:49.009Z,1.17
2022-11-23T10:14:35.782Z,1.92
2022-11-23T10:17:23.331Z,1.55
2022-11-23T10:19:58.786Z,1.50
2022-11-23T10:22:38.388Z,1.80
2022-11-23T10:25:16.375Z,1.90
2022-11-23T10:27:45.838Z,1.60
2022-11-23T10:30:13.841Z,1.77
2022-11-23T10:32:52.351Z,1.48
2022-11-23T10:35:28.186Z,1.42
2022-11-23T10:38:11.261Z,1.38
2022-11-23T10:40:49.809Z,1.40
2022-11-23T10:43:22.513Z,1.67
2022-11-23T10:45:48.859Z,1.25
2022-11-23T10:48:36.857Z,1.50
2022-11-23T10:51:19.927Z,1.83
2022-11-23T10:53:53.343Z,1.20
2022-11-23T10:56:19.792Z,1.40
2022-11-23T10:58:46.368Z,1.90
2022-11-23T11:01:25.441Z,1.67
2022-11-23T11:03:53.556Z,1.58
2022-11-23T11:06:25.762Z,1.10
2022-11-23T11:08:56.074Z,1.23
2022-11-23T11:11:22.331Z,1.90
2022-11-23T11:13:49.471Z,1.98
2022-11-23T11:16:18.782Z,1.40
2022-11-23T11:18:45.179Z,1.90
2022-11-23T11:21:28.723Z,1.65
2022-11-23T11:24:02.662Z,1.33
2022-11-23T11:26:30.921Z,1.80
2022-11-23T11:29:03.046Z,1.92
2022-11-23T11:31:59.819Z,1.85
2022-11-23T11:35:02.861Z,2.10
2022-11-23T11:37:37.663Z,1.90
2022-11-23T11:40:09.591Z,1.90
2022-11-23T11:42:42.037Z,1.83
2022-11-23T11:45:16.993Z,1.27
2022-11-23T11:47:47.685Z,1.67
2022-11-23T11:50:31.492Z,1.65
2022-11-23T11:53:04.753Z,1.73
2022-11-23T11:55:50.828Z,2.00
2022-11-23T11:58:17.920Z,1.80
2022-11-23T12:00:47.387Z,1.75
2022-11-23T12:03:39.302Z,2.00
2022-11-23T12:06:23.658Z,1.58
2022-11-23T12:09:06.574Z,1.88
2022-11-23T12:11:33.147Z,1.90
2022-11-23T12:14:05.455Z,1.80
2022-11-23T12:17:24.948Z,1.67
2022-11-23T12:19:59.778Z,1.83
2022-11-23T12:22:28.929Z,2.10
2022-11-23T12:25:34.553Z,2.13
2022-11-23T12:28:16.473Z,2.22
2022-11-23T12:30:51.756Z,1.55
2022-11-23T12:36:52.002Z,1.83
2022-11-23T12:39:57.673Z,1.60
2022-11-23T12:42:42.743Z,1.55
2022-11-23T12:45:18.155Z,1.80
2022-11-23T12:48:12.257Z,1.75
2022-11-23T12:50:57.534Z,2.08
2022-11-23T12:53:49.788Z,1.70
2022-11-23T12:56:51.436Z,1.70
2022-11-23T12:59:19.848Z,1.98
2022-11-23T13:01:52.193Z,1.90
2022-11-23T13:04:36.485Z,1.50
2022-11-23T13:07:35.403Z,1.83
2022-11-23T13:10:29.825Z,1.98
2022-11-23T13:13:15.673Z,1.90
2022-11-23T13:15:48.164Z,2.35
2022-11-23T13:18:26.677Z,2.30
2022-11-23T13:21:10.173Z,1.60
2022-11-23T13:23:38.369Z,1.80
2022-11-23T13:26:16.304Z,2.08
2022-11-23T13:28:44.305Z,2.15
2022-11-23T13:31:16.749Z,1.50
2022-11-23T13:33:48.337Z,1.63
2022-11-23T13:36:56.368Z,1.90
2022-11-23T13:39:44.195Z,1.77
2022-11-23T13:42:11.434Z,2.13
2022-11-23T13:44:37.935Z,2.00
2022-11-23T13:47:06.612Z,1.75
2022-11-23T13:49:38.941Z,2.10
2022-11-23T13:52:20.896Z,2.00
2022-11-23T13:55:18.095Z,1.70
2022-11-23T13:58:11.091Z,1.95
2022-11-23T14:00:49.512Z,1.75
2022-11-23T14:03:51.593Z,1.83
2022-11-23T14:06:38.162Z,1.83
2022-11-23T14:09:29.674Z,1.80
2022-11-23T14:12:03.470Z,1.73
2022-11-23T14:15:07.750Z,2.08
2022-11-23T14:18:05.894Z,2.10
2022-11-23T14:21:13.193Z,1.77
2022-11-23T14:26:23.033Z,1.92
2022-11-23T14:29:23.462Z,1.58
2022-11-23T14:32:34.659Z,1.77
2022-11-23T14:35:33.097Z,2.00
2022-11-23T14:38:34.163Z,2.00
2022-11-23T14:41:12.863Z,2.03
2022-11-23T14:43:42.321Z,2.05
2022-11-23T14:46:21.804Z,1.90
2022-11-23T14:48:49.397Z,2.13
2022-11-23T14:51:28.098Z,2.13
2022-11-23T14:53:58.081Z,2.15
2022-11-23T14:56:35.608Z,2.15
2022-11-23T14:59:06.173Z,1.88
2022-11-23T15:01:33.323Z,1.70
2022-11-23T15:04:07.532Z,2.17
2022-11-23T15:06:42.327Z,2.70
2022-11-23T15:09:38.253Z,2.05
2022-11-23T15:12:23.594Z,2.13
2022-11-23T15:14:51.291Z,2.78
2022-11-23T15:17:20.736Z,1.80
2022-11-23T15:19:58.448Z,2.05
2022-11-23T15:22:26.628Z,1.80
2022-11-23T15:24:53.349Z,2.50
2022-11-23T15:27:28.295Z,2.25
2022-11-23T15:29:57.093Z,2.30
2022-11-23T15:32:31.898Z,2.15
2022-11-23T15:35:02.955Z,2.22
2022-11-23T15:37:29.767Z,2.20
2022-11-23T15:39:57.009Z,2.13
2022-11-23T15:42:25.296Z,2.00
2022-11-23T15:44:53.993Z,1.90
2022-11-23T15:47:28.228Z,1.77
2022-11-23T15:50:04.101Z,2.00
2022-11-23T15:52:35.644Z,2.17
2022-11-23T15:55:10.050Z,2.63
2022-11-23T15:57:39.773Z,2.67
2022-11-23T16:00:07.438Z,2.50
2022-11-23T16:02:35.007Z,2.78
2022-11-23T16:05:22.172Z,2.97
2022-11-23T16:07:57.662Z,2.85
2022-11-23T16:10:32.182Z,2.70
2022-11-23T16:13:00.979Z,3.35
2022-11-23T16:15:27.231Z,3.22
2022-11-23T16:17:53.689Z,3.13
2022-11-23T16:20:24.330Z,3.13
2022-11-23T16:22:52.791Z,3.90
2022-11-23T16:25:30.101Z,4.30
2022-11-23T16:28:14.871Z,3.83
2022-11-23T16:30:46.369Z,3.22
2022-11-23T16:33:15.128Z,3.78
2022-11-23T16:35:41.482Z,4.28
2022-11-23T16:38:08.145Z,4.57
2022-11-23T16:40:34.681Z,4.43
2022-11-23T16:43:01.063Z,4.00
2022-11-23T16:45:27.433Z,3.85
2022-11-23T16:47:57.196Z,3.22
2022-11-23T16:50:24.463Z,3.20
2022-11-23T16:52:51.317Z,2.80
2022-11-23T16:55:18.047Z,3.03
2022-11-23T16:57:45.183Z,2.65
2022-11-23T17:00:16.821Z,3.38
2022-11-23T17:02:43.386Z,2.70
2022-11-23T17:05:18.099Z,2.78
2022-11-23T17:07:45.383Z,2.70
2022-11-23T17:10:13.734Z,2.70
2022-11-23T17:12:45.745Z,2.33
2022-11-23T17:15:13.331Z,2.50
2022-11-23T17:17:39.813Z,2.75
2022-11-23T17:20:10.191Z,2.30
2022-11-23T17:22:36.504Z,2.08
2022-11-23T17:25:03.005Z,2.95
2022-11-23T17:27:32.907Z,2.13
2022-11-23T17:30:01.653Z,2.58
2022-11-23T17:32:28.846Z,2.38
2022-11-23T17:34:55.221Z,2.30
2022-11-23T17:37:23.764Z,2.20
2022-11-23T17:39:50.874Z,2.40
2022-11-23T17:42:17.522Z,2.40
2022-11-23T17:44:43.856Z,2.58
2022-11-23T17:47:37.985Z,2.05
2022-11-23T17:50:08.617Z,2.63
2022-11-23T17:52:34.958Z,2.20
2022-11-23T17:55:01.317Z,2.65
2022-11-23T17:57:27.660Z,2.40
2022-11-23T17:59:54.483Z,2.08
2022-11-23T18:02:21.290Z,2.35
2022-11-23T18:04:47.940Z,2.38
2022-11-23T18:07:15.676Z,2.83
2022-11-23T18:09:42.547Z,2.08
2022-11-23T18:12:09.629Z,2.40
2022-11-23T18:14:36.002Z,2.58
2022-11-23T18:17:02.346Z,2.28
2022-11-23T18:19:28.677Z,2.17
2022-11-23T18:21:55.042Z,2.33
2022-11-23T18:24:21.442Z,2.65
2022-11-23T18:26:57.129Z,2.42
2022-11-23T18:29:23.509Z,3.13
2022-11-23T18:31:49.798Z,2.08
2022-11-23T18:34:16.107Z,2.35
2022-11-23T18:36:42.684Z,2.15
2022-11-23T18:39:09.106Z,2.10
2022-11-23T18:41:35.412Z,2.60
2022-11-23T18:44:01.745Z,2.50
2022-11-23T18:46:29.293Z,2.00
2022-11-23T18:48:57.258Z,1.95
2022-11-23T18:51:23.746Z,1.92
2022-11-23T18:53:51.290Z,2.20
2022-11-23T18:56:17.934Z,2.05
2022-11-23T18:58:45.684Z,2.15
2022-11-23T19:01:20.494Z,2.05
2022-11-23T19:03:49.285Z,1.90
2022-11-23T19:06:18.155Z,1.90
2022-11-23T19:08:49.993Z,2.40
2022-11-23T19:11:22.218Z,2.08
2022-11-23T19:13:51.305Z,3.22
2022-11-23T19:16:21.419Z,2.10
2022-11-23T19:18:53.535Z,2.75
2022-11-23T19:21:21.991Z,1.88
2022-11-23T19:23:51.697Z,2.33
2022-11-23T19:26:18.692Z,1.98
2022-11-23T19:28:45.930Z,2.08
2022-11-23T19:31:12.533Z,2.30
2022-11-23T19:33:39.137Z,1.88
2022-11-23T19:36:10.213Z,2.15
2022-11-23T19:38:36.630Z,2.20
2022-11-23T19:41:03.119Z,1.80
2022-11-23T19:43:29.500Z,2.38
2022-11-23T19:45:57.525Z,1.95
2022-11-23T19:48:24.665Z,1.90
2022-11-23T19:51:00.131Z,2.10
2022-11-23T19:53:30.835Z,2.30
2022-11-23T19:56:19.421Z,2.00
2022-11-23T19:58:46.800Z,1.90
2022-11-23T20:01:15.948Z,2.30
2022-11-23T20:03:46.064Z,1.85
2022-11-23T20:06:18.445Z,2.08
2022-11-23T20:08:45.623Z,2.03
2022-11-23T20:11:15.224Z,2.20
2022-11-23T20:13:42.888Z,1.80
2022-11-23T20:16:12.600Z,2.03
2022-11-23T20:18:39.754Z,2.13
2022-11-23T20:21:27.342Z,2.15
2022-11-23T20:24:06.063Z,2.20
2022-11-23T20:26:34.009Z,1.98
2022-11-23T20:29:00.409Z,2.10
2022-11-23T20:31:29.403Z,2.80
2022-11-23T20:33:56.812Z,2.03
2022-11-23T20:36:29.008Z,2.38
2022-11-23T20:38:55.950Z,2.20
2022-11-23T20:41:28.145Z,2.10
2022-11-23T20:43:57.314Z,1.80
2022-11-23T20:46:59.891Z,2.00
2022-11-23T20:49:11.330Z,1.90
2022-11-23T20:51:37.841Z,1.60
2022-11-23T20:54:04.237Z,1.90
2022-11-23T20:56:32.072Z,1.30
2022-11-23T20:59:04.029Z,1.60
2022-11-23T21:01:30.493Z,1.63
2022-11-23T21:03:58.785Z,2.20
2022-11-23T21:06:26.598Z,1.83
2022-11-23T21:08:53.856Z,1.50
2022-11-23T21:11:40.271Z,1.55
2022-11-23T21:16:56.250Z,1.52
2022-11-23T21:19:34.510Z,1.50
2022-11-23T21:22:12.104Z,1.60
2022-11-23T21:24:39.645Z,1.80
2022-11-23T21:27:07.924Z,1.63
2022-11-23T21:29:34.761Z,2.08
2022-11-23T21:32:03.990Z,1.65
2022-11-23T21:34:31.393Z,1.70
2022-11-23T21:36:58.366Z,1.52
2022-11-23T21:39:24.719Z,1.77
2022-11-23T21:41:53.522Z,2.28
2022-11-23T21:44:22.011Z,2.00
2022-11-23T21:46:48.566Z,1.75
2022-11-23T21:49:14.987Z,1.90
2022-11-23T21:51:42.643Z,1.95
2022-11-23T21:54:13.698Z,2.17
2022-11-23T21:56:40.148Z,2.20
2022-11-23T21:59:06.615Z,2.20
2022-11-23T22:01:35.062Z,2.05
2022-11-23T22:04:12.713Z,1.92
2022-11-23T22:06:40.134Z,2.05
2022-11-23T22:09:09.230Z,2.30
2022-11-23T22:11:37.739Z,2.00
2022-11-23T22:14:09.636Z,1.88
2022-11-23T22:16:38.708Z,2.17
2022-11-23T22:19:06.439Z,2.15
2022-11-23T22:21:35.698Z,2.10
2022-11-23T22:24:03.478Z,2.20
2022-11-23T22:26:29.949Z,2.22
2022-11-23T22:28:57.679Z,2.30
2022-11-23T22:31:25.485Z,2.15
2022-11-23T22:33:53.264Z,2.28
2022-11-23T22:36:24.006Z,2.28
2022-11-23T22:39:01.668Z,2.28
2022-11-23T22:41:29.729Z,2.33
2022-11-23T22:43:56.509Z,2.40
2022-11-23T22:46:24.577Z,2.15
2022-11-23T22:48:51.945Z,2.53
2022-11-23T22:51:20.341Z,2.67
2022-11-23T22:53:46.722Z,2.78
2022-11-23T22:56:17.796Z,2.20
2022-11-23T22:58:45.326Z,2.85
2022-11-23T23:01:14.469Z,2.67
2022-11-23T23:03:41.530Z,2.65
2022-11-23T23:06:15.351Z,2.17
2022-11-23T23:08:41.743Z,2.53
2022-11-23T23:11:08.252Z,2.38
2022-11-23T23:13:34.668Z,2.55
2022-11-23T23:16:03.071Z,2.53
2022-11-23T23:18:29.454Z,2.90
2022-11-23T23:21:10.708Z,2.35
2022-11-23T23:23:47.279Z,2.20
2022-11-23T23:26:15.883Z,2.53
2022-11-23T23:28:42.369Z,2.50
2022-11-23T23:31:14.121Z,2.40
2022-11-23T23:33:40.775Z,2.30
2022-11-23T23:36:11.582Z,2.72
2022-11-23T23:38:38.654Z,2.97
2022-11-23T23:41:06.605Z,2.40
2022-11-23T23:43:33.878Z,2.60
2022-11-23T23:46:04.771Z,2.30
2022-11-23T23:48:33.803Z,2.30
2022-11-23T23:51:11.139Z,2.80
2022-11-23T23:53:38.409Z,2.60
2022-11-23T23:56:07.644Z,2.70
2022-11-23T23:58:34.812Z,2.65
